createdAt,value
2023-04-05T00:00:20.513Z,94.76
2023-04-05T00:01:20.508Z,95.12
2023-04-05T00:02:20.499Z,95.29
2023-04-05T00:03:20.603Z,95.12
2023-04-05T00:04:21.610Z,95.12
2023-04-05T00:05:20.475Z,95.12
2023-04-05T00:06:20.472Z,95.12
2023-04-05T00:07:20.470Z,95.12
2023-04-05T00:08:20.458Z,95.12
2023-04-05T00:09:20.492Z,94.91
2023-04-05T00:10:20.439Z,96.06
2023-04-05T00:11:20.430Z,96.27
2023-04-05T00:12:20.428Z,96.90
2023-04-05T00:13:20.426Z,97.11
2023-04-05T00:14:20.440Z,96.37
2023-04-05T00:15:20.400Z,96.17
2023-04-05T00:16:20.411Z,96.69
2023-04-05T00:17:20.388Z,96.27
2023-04-05T00:18:20.395Z,96.69
2023-04-05T00:19:20.403Z,95.96
2023-04-05T00:20:20.370Z,95.23
2023-04-05T00:21:20.360Z,95.43
2023-04-05T00:22:20.352Z,95.43
2023-04-05T00:23:20.351Z,95.79
2023-04-05T00:24:20.378Z,96.00
2023-04-05T00:25:20.330Z,95.48
2023-04-05T00:26:20.331Z,95.68
2023-04-05T00:27:20.310Z,95.48
2023-04-05T00:28:21.301Z,95.27
2023-04-05T00:29:20.326Z,95.42
2023-04-05T00:30:20.297Z,95.58
2023-04-05T00:31:20.284Z,95.48
2023-04-05T00:32:20.278Z,95.37
2023-04-05T00:33:20.276Z,96.00
2023-04-05T00:34:20.263Z,95.52
2023-04-05T00:35:20.283Z,95.62
2023-04-05T00:36:20.244Z,95.62
2023-04-05T00:37:20.238Z,95.94
2023-04-05T00:38:20.249Z,95.94
2023-04-05T00:39:21.223Z,95.94
2023-04-05T00:40:20.254Z,96.04
2023-04-05T00:41:20.215Z,94.89
2023-04-05T00:42:20.203Z,94.89
2023-04-05T00:43:20.195Z,94.83
2023-04-05T00:44:20.193Z,95.04
2023-04-05T00:45:20.230Z,94.83
2023-04-05T00:46:20.193Z,94.79
2023-04-05T00:47:20.173Z,95.46
2023-04-05T00:48:20.184Z,95.56
2023-04-05T00:49:20.172Z,96.09
2023-04-05T00:50:20.180Z,95.98
2023-04-05T00:51:20.197Z,95.50
2023-04-05T00:52:20.134Z,95.98
2023-04-05T00:53:20.129Z,96.09
2023-04-05T00:54:20.124Z,96.30
2023-04-05T00:55:20.131Z,96.87
2023-04-05T00:56:20.099Z,96.93
2023-04-05T00:57:20.097Z,96.61
2023-04-05T00:58:20.139Z,96.34
2023-04-05T00:59:20.109Z,96.34
2023-04-05T01:00:20.085Z,96.55
2023-04-05T01:01:20.097Z,96.41
2023-04-05T01:02:20.054Z,96.45
2023-04-05T01:03:20.042Z,96.34
2023-04-05T01:04:20.067Z,96.83
2023-04-05T01:05:20.056Z,96.87
2023-04-05T01:06:20.020Z,96.55
2023-04-05T01:07:21.006Z,96.77
2023-04-05T01:08:20.091Z,96.55
2023-04-05T01:09:19.992Z,96.77
2023-04-05T01:10:20.014Z,96.66
2023-04-05T01:11:19.976Z,96.55
2023-04-05T01:12:19.981Z,96.66
2023-04-05T01:13:19.960Z,96.13
2023-04-05T01:14:19.960Z,96.45
2023-04-05T01:15:19.984Z,96.91
2023-04-05T01:16:19.994Z,96.97
2023-04-05T01:17:19.934Z,96.39
2023-04-05T01:18:19.983Z,96.81
2023-04-05T01:19:19.917Z,96.59
2023-04-05T01:20:19.943Z,96.81
2023-04-05T01:21:19.904Z,97.33
2023-04-05T01:22:19.902Z,97.12
2023-04-05T01:23:19.888Z,96.59
2023-04-05T01:24:19.895Z,96.59
2023-04-05T01:25:19.896Z,96.59
2023-04-05T01:26:19.880Z,96.59
2023-04-05T01:27:19.868Z,97.12
2023-04-05T01:28:19.876Z,96.91
2023-04-05T01:29:19.851Z,97.96
2023-04-05T01:30:19.858Z,97.86
2023-04-05T01:31:19.909Z,97.75
2023-04-05T01:32:19.825Z,97.44
2023-04-05T01:33:19.807Z,97.64
2023-04-05T01:34:19.812Z,97.54
2023-04-05T01:35:21.283Z,97.54
2023-04-05T01:36:19.861Z,97.23
2023-04-05T01:37:19.796Z,97.33
2023-04-05T01:38:19.785Z,97.12
2023-04-05T01:39:19.769Z,97.75
2023-04-05T01:40:19.785Z,98.07
2023-04-05T01:41:19.750Z,98.59
2023-04-05T01:42:19.750Z,98.38
2023-04-05T01:43:19.738Z,98.49
2023-04-05T01:44:19.732Z,98.11
2023-04-05T01:45:19.762Z,97.75
2023-04-05T01:46:19.738Z,97.75
2023-04-05T01:47:19.711Z,97.90
2023-04-05T01:48:19.708Z,98.22
2023-04-05T01:49:19.706Z,98.53
2023-04-05T01:50:19.729Z,98.00
2023-04-05T01:51:19.688Z,97.48
2023-04-05T01:52:19.674Z,97.90
2023-04-05T01:53:19.670Z,97.69
2023-04-05T01:54:19.666Z,97.80
2023-04-05T01:55:19.673Z,97.90
2023-04-05T01:56:20.653Z,97.90
2023-04-05T01:57:19.641Z,98.53
2023-04-05T01:58:19.628Z,98.53
2023-04-05T01:59:19.638Z,98.53
2023-04-05T02:00:19.617Z,98.32
2023-04-05T02:01:19.660Z,98.11
2023-04-05T02:02:19.599Z,98.64
2023-04-05T02:03:19.639Z,97.80
2023-04-05T02:04:19.588Z,98.00
2023-04-05T02:05:19.587Z,97.80
2023-04-05T02:06:19.601Z,97.69
2023-04-05T02:07:19.566Z,97.69
2023-04-05T02:08:19.566Z,97.53
2023-04-05T02:09:19.551Z,97.53
2023-04-05T02:10:19.547Z,97.53
2023-04-05T02:11:19.569Z,97.74
2023-04-05T02:12:19.537Z,97.53
2023-04-05T02:13:19.520Z,97.42
2023-04-05T02:14:19.533Z,97.42
2023-04-05T02:15:19.508Z,97.94
2023-04-05T02:16:19.562Z,97.74
2023-04-05T02:17:19.501Z,98.10
2023-04-05T02:18:19.526Z,98.16
2023-04-05T02:19:19.486Z,98.41
2023-04-05T02:20:19.474Z,98.05
2023-04-05T02:21:19.487Z,98.20
2023-04-05T02:22:19.468Z,97.88
2023-04-05T02:23:19.479Z,98.62
2023-04-05T02:24:19.450Z,98.62
2023-04-05T02:25:19.445Z,98.62
2023-04-05T02:26:19.451Z,98.30
2023-04-05T02:27:19.421Z,98.83
2023-04-05T02:28:19.420Z,99.15
2023-04-05T02:29:19.412Z,98.62
2023-04-05T02:30:19.400Z,98.83
2023-04-05T02:31:19.435Z,98.66
2023-04-05T02:32:19.386Z,98.77
2023-04-05T02:33:19.377Z,98.77
2023-04-05T02:34:19.374Z,98.77
2023-04-05T02:35:19.408Z,98.66
2023-04-05T02:36:19.374Z,98.66
2023-04-05T02:37:19.356Z,98.66
2023-04-05T02:38:19.355Z,98.77
2023-04-05T02:39:19.331Z,98.88
2023-04-05T02:40:19.323Z,99.04
2023-04-05T02:41:19.341Z,98.46
2023-04-05T02:42:19.316Z,98.88
2023-04-05T02:43:19.328Z,98.14
2023-04-05T02:44:19.298Z,98.88
2023-04-05T02:45:19.292Z,98.66
2023-04-05T02:46:19.459Z,98.77
2023-04-05T02:47:19.269Z,98.77
2023-04-05T02:48:19.274Z,98.66
2023-04-05T02:49:19.263Z,98.46
2023-04-05T02:50:19.263Z,98.56
2023-04-05T02:51:19.275Z,98.46
2023-04-05T02:52:19.230Z,98.77
2023-04-05T02:53:19.248Z,98.82
2023-04-05T02:54:19.218Z,98.66
2023-04-05T02:55:19.205Z,98.35
2023-04-05T02:56:19.227Z,98.39
2023-04-05T02:57:19.201Z,98.71
2023-04-05T02:58:19.185Z,98.66
2023-04-05T02:59:19.210Z,98.71
2023-04-05T03:00:19.180Z,98.92
2023-04-05T03:01:19.230Z,98.39
2023-04-05T03:02:19.161Z,98.08
2023-04-05T03:03:19.202Z,98.18
2023-04-05T03:04:19.153Z,98.75
2023-04-05T03:05:19.147Z,99.02
2023-04-05T03:06:19.150Z,99.07
2023-04-05T03:07:19.133Z,99.24
2023-04-05T03:08:19.115Z,99.13
2023-04-05T03:09:19.112Z,99.24
2023-04-05T03:10:19.117Z,99.76
2023-04-05T03:11:19.114Z,99.66
2023-04-05T03:12:19.085Z,99.76
2023-04-05T03:13:19.086Z,99.66
2023-04-05T03:14:19.081Z,99.49
2023-04-05T03:15:19.066Z,99.55
2023-04-05T03:16:19.130Z,99.55
2023-04-05T03:17:19.056Z,99.76
2023-04-05T03:18:19.043Z,99.02
2023-04-05T03:19:19.038Z,98.60
2023-04-05T03:20:19.034Z,98.75
2023-04-05T03:21:19.085Z,98.86
2023-04-05T03:22:19.023Z,99.28
2023-04-05T03:23:19.001Z,98.97
2023-04-05T03:24:19.007Z,99.60
2023-04-05T03:25:19.032Z,99.49
2023-04-05T03:26:19.008Z,99.49
2023-04-05T03:27:18.969Z,99.28
2023-04-05T03:28:19.960Z,99.49
2023-04-05T03:29:18.954Z,99.60
2023-04-05T03:30:18.969Z,99.85
2023-04-05T03:31:20.606Z,99.81
2023-04-05T03:32:19.941Z,99.60
2023-04-05T03:33:18.935Z,99.70
2023-04-05T03:34:18.930Z,99.99
2023-04-05T03:35:19.991Z,99.49
2023-04-05T03:36:18.942Z,99.60
2023-04-05T03:37:18.904Z,99.81
2023-04-05T03:38:18.911Z,99.81
2023-04-05T03:39:18.889Z,99.81
2023-04-05T03:40:18.885Z,99.81
2023-04-05T03:41:18.864Z,99.91
2023-04-05T03:42:19.894Z,99.99
2023-04-05T03:43:18.858Z,99.28
2023-04-05T03:44:18.863Z,99.39
2023-04-05T03:45:23.317Z,99.75
2023-04-05T03:46:20.906Z,99.99
2023-04-05T03:47:18.841Z,99.33
2023-04-05T03:48:18.821Z,99.96
2023-04-05T03:49:18.813Z,99.99
2023-04-05T03:50:18.819Z,99.99
2023-04-05T03:51:18.794Z,99.54
2023-04-05T03:52:18.816Z,99.48
2023-04-05T03:53:18.782Z,99.79
2023-04-05T03:54:18.774Z,99.37
2023-04-05T03:55:18.764Z,99.43
2023-04-05T03:56:18.753Z,99.99
2023-04-05T03:57:19.750Z,99.99
2023-04-05T03:58:18.760Z,99.99
2023-04-05T03:59:18.741Z,99.79
2023-04-05T04:00:18.727Z,99.58
2023-04-05T04:01:18.727Z,99.99
2023-04-05T04:02:18.784Z,99.99
2023-04-05T04:03:18.704Z,99.99
2023-04-05T04:04:18.700Z,99.99
2023-04-05T04:05:18.822Z,99.99
2023-04-05T04:06:19.511Z,99.99
2023-04-05T04:07:19.703Z,99.99
2023-04-05T04:08:18.676Z,99.99
2023-04-05T04:09:18.663Z,99.99
2023-04-05T04:10:18.654Z,99.99
2023-04-05T04:11:18.639Z,99.99
2023-04-05T04:12:18.655Z,99.99
2023-04-05T04:13:18.626Z,99.99
2023-04-05T04:14:18.620Z,99.90
2023-04-05T04:15:18.612Z,99.79
2023-04-05T04:16:18.628Z,99.79
2023-04-05T04:17:18.633Z,99.99
2023-04-05T04:18:18.610Z,99.99
2023-04-05T04:19:18.600Z,99.99
2023-04-05T04:20:18.581Z,99.63
2023-04-05T04:21:18.588Z,99.73
2023-04-05T04:22:18.592Z,99.99
2023-04-05T04:23:18.581Z,99.95
2023-04-05T04:24:18.620Z,99.99
2023-04-05T04:25:18.537Z,99.99
2023-04-05T04:26:18.533Z,99.99
2023-04-05T04:27:18.564Z,99.99
2023-04-05T04:28:18.513Z,99.99
2023-04-05T04:29:18.515Z,99.63
2023-04-05T04:30:18.515Z,99.73
2023-04-05T04:31:19.518Z,99.84
2023-04-05T04:32:18.534Z,99.99
2023-04-05T04:33:18.545Z,99.99
2023-04-05T04:34:18.478Z,99.99
2023-04-05T04:35:18.638Z,99.99
2023-04-05T04:36:19.175Z,99.99
2023-04-05T04:37:18.500Z,99.99
2023-04-05T04:38:18.436Z,99.99
2023-04-05T04:39:18.434Z,99.99
2023-04-05T04:40:18.435Z,99.99
2023-04-05T04:41:18.416Z,99.99
2023-04-05T04:42:18.430Z,99.99
2023-04-05T04:43:18.401Z,99.84
2023-04-05T04:44:18.393Z,99.99
2023-04-05T04:45:18.395Z,99.99
2023-04-05T04:46:18.501Z,99.84
2023-04-05T04:47:18.398Z,99.63
2023-04-05T04:48:18.361Z,99.84
2023-04-05T04:49:18.356Z,99.84
2023-04-05T04:50:18.351Z,99.63
2023-04-05T04:51:18.347Z,99.84
2023-04-05T04:52:18.358Z,99.99
2023-04-05T04:53:18.328Z,99.84
2023-04-05T04:54:19.323Z,99.69
2023-04-05T04:55:18.310Z,99.99
2023-04-05T04:56:18.310Z,99.95
2023-04-05T04:57:18.321Z,99.84
2023-04-05T04:58:18.312Z,99.95
2023-04-05T04:59:19.338Z,99.63
2023-04-05T05:00:18.279Z,99.63
2023-04-05T05:01:18.344Z,99.99
2023-04-05T05:02:18.285Z,99.99
2023-04-05T05:03:18.256Z,99.99
2023-04-05T05:04:18.286Z,99.21
2023-04-05T05:05:18.237Z,99.27
2023-04-05T05:06:19.237Z,99.37
2023-04-05T05:07:18.254Z,99.27
2023-04-05T05:08:20.601Z,99.27
2023-04-05T05:09:19.220Z,98.91
2023-04-05T05:10:18.205Z,99.11
2023-04-05T05:11:18.205Z,98.92
2023-04-05T05:12:18.220Z,98.79
2023-04-05T05:13:18.190Z,97.39
2023-04-05T05:14:18.187Z,95.94
2023-04-05T05:15:18.172Z,92.88
2023-04-05T05:16:18.199Z,90.59
2023-04-05T05:17:18.186Z,88.53
2023-04-05T05:18:18.151Z,87.05
2023-04-05T05:19:18.145Z,84.78
2023-04-05T05:20:18.137Z,83.45
2023-04-05T05:21:18.130Z,81.40
2023-04-05T05:22:18.160Z,80.32
2023-04-05T05:23:18.123Z,79.03
2023-04-05T05:24:18.103Z,77.86
2023-04-05T05:25:18.098Z,77.26
2023-04-05T05:26:18.086Z,76.19
2023-04-05T05:27:18.125Z,74.81
2023-04-05T05:28:18.081Z,74.36
2023-04-05T05:29:18.067Z,74.11
2023-04-05T05:30:18.061Z,73.05
2023-04-05T05:31:18.223Z,73.29
2023-04-05T05:32:18.068Z,72.94
2023-04-05T05:33:18.039Z,72.29
2023-04-05T05:34:18.037Z,70.19
2023-04-05T05:35:18.046Z,69.95
2023-04-05T05:36:18.012Z,69.61
2023-04-05T05:37:18.038Z,69.24
2023-04-05T05:38:18.001Z,69.37
2023-04-05T05:39:17.997Z,69.75
2023-04-05T05:40:17.978Z,69.00
2023-04-05T05:41:17.967Z,68.86
2023-04-05T05:42:18.022Z,68.83
2023-04-05T05:43:17.953Z,66.97
2023-04-05T05:44:17.957Z,66.84
2023-04-05T05:45:17.936Z,66.91
2023-04-05T05:46:19.396Z,66.91
2023-04-05T05:47:17.920Z,67.50
2023-04-05T05:48:17.934Z,65.75
2023-04-05T05:49:17.947Z,65.92
2023-04-05T05:50:17.892Z,64.56
2023-04-05T05:51:17.884Z,64.97
2023-04-05T05:52:17.876Z,63.81
2023-04-05T05:53:17.911Z,60.42
2023-04-05T05:54:17.862Z,60.21
2023-04-05T05:55:17.853Z,60.01
2023-04-05T05:56:17.849Z,60.29
2023-04-05T05:57:17.837Z,60.08
2023-04-05T05:58:17.864Z,59.67
2023-04-05T05:59:17.845Z,59.26
2023-04-05T06:00:17.863Z,58.83
2023-04-05T06:01:17.809Z,58.69
2023-04-05T06:02:17.808Z,57.98
2023-04-05T06:03:17.918Z,57.75
2023-04-05T06:04:17.916Z,56.79
2023-04-05T06:05:17.781Z,56.77
2023-04-05T06:06:17.765Z,55.74
2023-04-05T06:07:17.763Z,55.92
2023-04-05T06:08:17.780Z,55.10
2023-04-05T06:09:17.747Z,54.67
2023-04-05T06:10:17.742Z,54.67
2023-04-05T06:11:17.744Z,55.30
2023-04-05T06:12:17.748Z,55.02
2023-04-05T06:13:17.748Z,55.33
2023-04-05T06:14:17.711Z,57.41
2023-04-05T06:15:17.697Z,57.15
2023-04-05T06:16:17.732Z,58.00
2023-04-05T06:17:17.689Z,57.67
2023-04-05T06:18:17.739Z,57.03
2023-04-05T06:19:17.685Z,56.79
2023-04-05T06:20:17.661Z,56.38
2023-04-05T06:21:17.703Z,56.62
2023-04-05T06:22:17.644Z,57.10
2023-04-05T06:23:17.661Z,57.51
2023-04-05T06:24:17.632Z,56.67
2023-04-05T06:25:18.351Z,56.18
2023-04-05T06:26:18.608Z,55.82
2023-04-05T06:27:17.604Z,55.10
2023-04-05T06:28:17.615Z,55.49
2023-04-05T06:29:17.587Z,55.56
2023-04-05T06:30:17.579Z,54.10
2023-04-05T06:31:17.879Z,53.44
2023-04-05T06:32:17.558Z,54.23
2023-04-05T06:33:17.593Z,54.13
2023-04-05T06:34:17.539Z,54.54
2023-04-05T06:35:17.537Z,54.39
2023-04-05T06:36:17.531Z,53.64
2023-04-05T06:37:17.521Z,53.21
2023-04-05T06:38:17.544Z,53.01
2023-04-05T06:39:17.505Z,53.13
2023-04-05T06:40:17.483Z,53.23
2023-04-05T06:41:18.489Z,52.93
2023-04-05T06:42:17.487Z,52.91
2023-04-05T06:43:17.497Z,52.91
2023-04-05T06:44:17.465Z,52.70
2023-04-05T06:45:17.465Z,51.89
2023-04-05T06:46:17.467Z,52.50
2023-04-05T06:47:17.439Z,52.47
2023-04-05T06:48:17.459Z,51.10
2023-04-05T06:49:17.427Z,51.28
2023-04-05T06:50:17.418Z,50.18
2023-04-05T06:51:17.417Z,52.01
2023-04-05T06:52:17.402Z,51.68
2023-04-05T06:53:17.430Z,51.07
2023-04-05T06:54:17.389Z,51.20
2023-04-05T06:55:17.381Z,51.17
2023-04-05T06:56:17.373Z,51.28
2023-04-05T06:57:17.364Z,50.15
2023-04-05T06:58:17.409Z,51.38
2023-04-05T06:59:17.412Z,51.22
2023-04-05T07:00:17.371Z,51.53
2023-04-05T07:01:17.419Z,52.96
2023-04-05T07:02:17.327Z,52.96
2023-04-05T07:03:17.388Z,53.19
2023-04-05T07:04:17.345Z,53.21
2023-04-05T07:05:17.308Z,53.27
2023-04-05T07:06:17.295Z,52.62
2023-04-05T07:07:17.284Z,51.89
2023-04-05T07:08:17.371Z,51.99
2023-04-05T07:09:17.272Z,50.34
2023-04-05T07:10:17.271Z,50.92
2023-04-05T07:11:17.261Z,50.42
2023-04-05T07:12:17.251Z,50.67
2023-04-05T07:13:17.280Z,51.10
2023-04-05T07:14:17.249Z,53.08
2023-04-05T07:15:17.230Z,52.73
2023-04-05T07:16:17.278Z,51.84
2023-04-05T07:17:17.210Z,53.06
2023-04-05T07:18:17.236Z,52.75
2023-04-05T07:19:17.201Z,52.98
2023-04-05T07:20:17.189Z,53.34
2023-04-05T07:21:17.184Z,53.11
2023-04-05T07:22:17.380Z,51.93
2023-04-05T07:23:17.187Z,51.89
2023-04-05T07:24:17.157Z,53.03
2023-04-05T07:25:17.148Z,53.44
2023-04-05T07:26:17.142Z,53.77
2023-04-05T07:27:17.136Z,54.05
2023-04-05T07:28:17.171Z,52.73
2023-04-05T07:29:17.126Z,50.52
2023-04-05T07:30:17.119Z,50.21
2023-04-05T07:31:17.144Z,50.46
2023-04-05T07:32:17.116Z,50.54
2023-04-05T07:33:17.140Z,50.56
2023-04-05T07:34:17.083Z,51.63
2023-04-05T07:35:17.083Z,52.12
2023-04-05T07:36:17.122Z,51.15
2023-04-05T07:37:17.067Z,50.92
2023-04-05T07:38:17.090Z,51.07
2023-04-05T07:39:17.054Z,51.56
2023-04-05T07:40:17.038Z,52.15
2023-04-05T07:41:17.039Z,50.01
2023-04-05T07:42:17.030Z,48.95
2023-04-05T07:43:17.040Z,49.40
2023-04-05T07:44:17.016Z,49.02
2023-04-05T07:45:17.015Z,49.86
2023-04-05T07:46:17.015Z,49.84
2023-04-05T07:47:16.988Z,47.78
2023-04-05T07:48:17.006Z,47.80
2023-04-05T07:49:16.975Z,48.19
2023-04-05T07:50:16.970Z,48.61
2023-04-05T07:51:16.961Z,47.98
2023-04-05T07:52:16.956Z,47.43
2023-04-05T07:53:16.999Z,47.18
2023-04-05T07:54:16.964Z,46.41
2023-04-05T07:55:16.940Z,47.00
2023-04-05T07:56:16.954Z,47.09
2023-04-05T07:57:16.938Z,47.66
2023-04-05T07:58:16.938Z,48.93
2023-04-05T07:59:16.938Z,48.11
2023-04-05T08:00:16.898Z,49.21
2023-04-05T08:01:16.894Z,48.76
2023-04-05T08:02:16.889Z,47.29
2023-04-05T08:03:16.955Z,45.60
2023-04-05T08:04:16.879Z,46.06
2023-04-05T08:05:16.892Z,46.11
2023-04-05T08:06:16.853Z,47.74
2023-04-05T08:07:16.853Z,46.97
2023-04-05T08:08:16.871Z,46.48
2023-04-05T08:09:16.843Z,46.68
2023-04-05T08:10:16.817Z,45.54
2023-04-05T08:11:16.819Z,45.90
2023-04-05T08:12:16.809Z,45.05
2023-04-05T08:13:16.832Z,44.24
2023-04-05T08:14:16.794Z,44.44
2023-04-05T08:15:16.783Z,44.44
2023-04-05T08:16:16.828Z,43.61
2023-04-05T08:17:16.836Z,44.18
2023-04-05T08:18:16.798Z,43.29
2023-04-05T08:19:16.763Z,45.03
2023-04-05T08:20:16.750Z,45.76
2023-04-05T08:21:16.744Z,45.95
2023-04-05T08:22:16.738Z,47.12
2023-04-05T08:23:16.759Z,49.40
2023-04-05T08:24:16.732Z,50.88
2023-04-05T08:25:16.715Z,51.93
2023-04-05T08:26:16.706Z,51.83
2023-04-05T08:27:16.735Z,50.08
2023-04-05T08:28:16.722Z,50.66
2023-04-05T08:29:16.692Z,50.33
2023-04-05T08:30:16.677Z,50.04
2023-04-05T08:31:16.686Z,50.27
2023-04-05T08:32:16.701Z,49.67
2023-04-05T08:33:16.772Z,47.66
2023-04-05T08:34:16.653Z,46.37
2023-04-05T08:35:16.644Z,45.28
2023-04-05T08:36:16.638Z,47.44
2023-04-05T08:37:16.638Z,47.37
2023-04-05T08:38:16.656Z,43.98
2023-04-05T08:39:16.624Z,44.34
2023-04-05T08:40:16.617Z,44.54
2023-04-05T08:41:16.612Z,43.53
2023-04-05T08:42:16.602Z,44.81
2023-04-05T08:43:18.478Z,44.57
2023-04-05T08:44:16.595Z,44.63
2023-04-05T08:45:16.601Z,45.21
2023-04-05T08:46:16.661Z,44.04
2023-04-05T08:47:16.564Z,42.84
2023-04-05T08:48:16.556Z,41.19
2023-04-05T08:49:16.575Z,42.51
2023-04-05T08:50:16.546Z,43.73
2023-04-05T08:51:16.532Z,44.04
2023-04-05T08:52:17.528Z,43.65
2023-04-05T08:53:16.525Z,42.17
2023-04-05T08:54:16.558Z,41.52
2023-04-05T08:55:16.507Z,40.38
2023-04-05T08:56:16.506Z,40.99
2023-04-05T08:57:16.497Z,43.63
2023-04-05T08:58:16.485Z,42.90
2023-04-05T08:59:16.529Z,41.19
2023-04-05T09:00:16.470Z,41.28
2023-04-05T09:01:16.523Z,41.03
2023-04-05T09:02:16.564Z,39.47
2023-04-05T09:03:16.535Z,39.04
2023-04-05T09:04:16.474Z,38.98
2023-04-05T09:05:16.441Z,39.35
2023-04-05T09:06:16.424Z,41.88
2023-04-05T09:07:16.436Z,40.04
2023-04-05T09:08:16.413Z,41.24
2023-04-05T09:09:17.107Z,41.32
2023-04-05T09:10:16.400Z,39.58
2023-04-05T09:11:16.399Z,38.24
2023-04-05T09:12:16.382Z,36.74
2023-04-05T09:13:16.382Z,38.12
2023-04-05T09:14:16.390Z,39.18
2023-04-05T09:15:16.404Z,40.54
2023-04-05T09:16:16.402Z,40.01
2023-04-05T09:17:16.395Z,42.59
2023-04-05T09:18:26.127Z,43.26
2023-04-05T09:19:18.358Z,43.10
2023-04-05T09:20:16.334Z,44.08
2023-04-05T09:21:16.315Z,47.52
2023-04-05T09:22:16.308Z,44.20
2023-04-05T09:23:16.296Z,43.63
2023-04-05T09:24:16.326Z,45.45
2023-04-05T09:25:16.281Z,46.37
2023-04-05T09:26:16.275Z,47.34
2023-04-05T09:27:16.285Z,48.14
2023-04-05T09:28:16.262Z,46.19
2023-04-05T09:29:16.278Z,47.27
2023-04-05T09:30:16.251Z,46.09
2023-04-05T09:31:16.241Z,50.34
2023-04-05T09:32:16.250Z,46.68
2023-04-05T09:33:16.224Z,45.64
2023-04-05T09:34:16.241Z,46.03
2023-04-05T09:35:16.213Z,47.17
2023-04-05T09:36:16.199Z,49.52
2023-04-05T09:37:16.211Z,47.45
2023-04-05T09:38:16.199Z,44.53
2023-04-05T09:39:16.219Z,43.08
2023-04-05T09:40:16.177Z,41.92
2023-04-05T09:41:16.165Z,42.08
2023-04-05T09:42:16.155Z,45.04
2023-04-05T09:43:16.156Z,44.43
2023-04-05T09:44:16.170Z,44.28
2023-04-05T09:45:16.139Z,42.96
2023-04-05T09:46:16.152Z,45.85
2023-04-05T09:47:16.149Z,44.63
2023-04-05T09:48:16.132Z,42.98
2023-04-05T09:49:16.128Z,42.76
2023-04-05T09:50:16.137Z,42.86
2023-04-05T09:51:16.101Z,43.55
2023-04-05T09:52:16.079Z,43.04
2023-04-05T09:53:16.386Z,39.58
2023-04-05T09:54:16.083Z,41.05
2023-04-05T09:55:16.055Z,39.94
2023-04-05T09:56:16.048Z,39.82
2023-04-05T09:57:16.036Z,45.06
2023-04-05T09:58:16.030Z,43.14
2023-04-05T09:59:16.095Z,42.21
2023-04-05T10:00:17.014Z,42.92
2023-04-05T10:01:17.411Z,42.02
2023-04-05T10:02:17.069Z,41.71
2023-04-05T10:03:16.044Z,43.06
2023-04-05T10:04:16.144Z,42.77
2023-04-05T10:05:15.998Z,44.32
2023-04-05T10:06:15.965Z,41.69
2023-04-05T10:07:15.968Z,41.49
2023-04-05T10:08:15.953Z,41.40
2023-04-05T10:09:15.965Z,42.03
2023-04-05T10:10:15.940Z,46.03
2023-04-05T10:11:15.921Z,47.45
2023-04-05T10:12:16.914Z,45.94
2023-04-05T10:13:15.922Z,47.50
2023-04-05T10:14:15.940Z,48.09
2023-04-05T10:15:15.888Z,46.12
2023-04-05T10:16:16.016Z,43.65
2023-04-05T10:17:15.874Z,42.10
2023-04-05T10:18:15.911Z,43.73
2023-04-05T10:19:15.889Z,41.69
2023-04-05T10:20:15.846Z,42.41
2023-04-05T10:21:15.840Z,44.17
2023-04-05T10:22:15.833Z,44.04
2023-04-05T10:23:15.860Z,41.97
2023-04-05T10:24:15.820Z,43.08
2023-04-05T10:25:15.855Z,41.94
2023-04-05T10:26:15.804Z,41.53
2023-04-05T10:27:15.806Z,41.83
2023-04-05T10:28:15.791Z,43.38
2023-04-05T10:29:15.784Z,46.53
2023-04-05T10:30:15.888Z,46.95
2023-04-05T10:31:27.021Z,48.25
2023-04-05T10:32:17.816Z,49.22
2023-04-05T10:33:15.762Z,51.07
2023-04-05T10:34:15.747Z,50.58
2023-04-05T10:35:15.765Z,48.32
2023-04-05T10:36:15.760Z,50.89
2023-04-05T10:37:15.756Z,49.78
2023-04-05T10:38:15.755Z,54.69
2023-04-05T10:39:15.709Z,51.30
2023-04-05T10:40:15.730Z,49.32
2023-04-05T10:41:15.676Z,49.30
2023-04-05T10:42:15.680Z,53.61
2023-04-05T10:43:15.672Z,47.80
2023-04-05T10:44:25.720Z,50.99
2023-04-05T10:45:17.743Z,52.84
2023-04-05T10:46:15.726Z,51.50
2023-04-05T10:47:15.764Z,49.11
2023-04-05T10:48:15.673Z,47.96
2023-04-05T10:49:15.640Z,47.14
2023-04-05T10:50:15.635Z,46.71
2023-04-05T10:51:15.640Z,47.34
2023-04-05T10:52:15.622Z,51.17
2023-04-05T10:53:15.658Z,49.57
2023-04-05T10:54:15.585Z,50.24
2023-04-05T10:55:15.668Z,53.25
2023-04-05T10:56:15.606Z,52.63
2023-04-05T10:57:15.566Z,52.50
2023-04-05T10:58:15.586Z,51.68
2023-04-05T10:59:15.634Z,51.57
2023-04-05T11:00:15.623Z,50.73
2023-04-05T11:01:15.574Z,49.49
2023-04-05T11:02:15.532Z,53.45
2023-04-05T11:03:15.546Z,52.43
2023-04-05T11:04:15.546Z,51.48
2023-04-05T11:05:15.531Z,49.98
2023-04-05T11:06:15.498Z,55.15
2023-04-05T11:07:15.482Z,49.80
2023-04-05T11:08:15.471Z,48.30
2023-04-05T11:09:15.459Z,51.21
2023-04-05T11:10:15.485Z,50.16
2023-04-05T11:11:15.458Z,50.85
2023-04-05T11:12:15.450Z,49.31
2023-04-05T11:13:15.432Z,50.01
2023-04-05T11:14:15.433Z,49.26
2023-04-05T11:15:15.461Z,49.65
2023-04-05T11:16:15.447Z,49.24
2023-04-05T11:17:15.422Z,48.39
2023-04-05T11:18:15.400Z,48.35
2023-04-05T11:19:15.384Z,48.94
2023-04-05T11:20:15.413Z,50.05
2023-04-05T11:21:15.367Z,50.62
2023-04-05T11:22:15.371Z,49.06
2023-04-05T11:23:15.367Z,47.93
2023-04-05T11:24:15.352Z,45.25
2023-04-05T11:25:15.365Z,45.23
2023-04-05T11:26:15.334Z,44.02
2023-04-05T11:27:15.352Z,44.76
2023-04-05T11:28:15.310Z,46.11
2023-04-05T11:29:15.310Z,44.55
2023-04-05T11:30:15.313Z,43.91
2023-04-05T11:31:15.396Z,46.07
2023-04-05T11:32:15.280Z,46.50
2023-04-05T11:33:15.279Z,46.39
2023-04-05T11:34:15.278Z,46.68
2023-04-05T11:35:15.282Z,46.25
2023-04-05T11:36:15.324Z,45.82
2023-04-05T11:37:15.265Z,49.42
2023-04-05T11:38:15.237Z,47.15
2023-04-05T11:39:15.229Z,49.50
2023-04-05T11:40:15.248Z,47.97
2023-04-05T11:41:15.236Z,47.15
2023-04-05T11:42:15.212Z,46.23
2023-04-05T11:43:15.207Z,44.59
2023-04-05T11:44:15.201Z,45.82
2023-04-05T11:45:15.186Z,46.94
2023-04-05T11:46:15.238Z,47.05
2023-04-05T11:47:15.167Z,48.17
2023-04-05T11:48:15.160Z,46.21
2023-04-05T11:49:15.158Z,45.92
2023-04-05T11:50:15.145Z,45.23
2023-04-05T11:51:15.192Z,47.27
2023-04-05T11:52:15.134Z,46.23
2023-04-05T11:53:15.108Z,44.85
2023-04-05T11:54:16.108Z,45.18
2023-04-05T11:55:15.115Z,46.29
2023-04-05T11:56:15.133Z,48.15
2023-04-05T11:57:15.089Z,48.97
2023-04-05T11:58:15.097Z,48.13
2023-04-05T11:59:15.112Z,46.19
2023-04-05T12:00:15.060Z,45.82
2023-04-05T12:01:15.071Z,47.93
2023-04-05T12:02:15.137Z,47.63
2023-04-05T12:03:15.189Z,47.55
2023-04-05T12:04:15.033Z,45.78
2023-04-05T12:05:15.065Z,46.72
2023-04-05T12:06:15.041Z,46.77
2023-04-05T12:07:15.015Z,48.22
2023-04-05T12:08:14.995Z,46.79
2023-04-05T12:09:14.997Z,46.15
2023-04-05T12:10:14.974Z,45.83
2023-04-05T12:11:14.991Z,48.06
2023-04-05T12:12:14.965Z,50.90
2023-04-05T12:13:14.954Z,47.93
2023-04-05T12:14:14.946Z,47.52
2023-04-05T12:15:15.020Z,45.45
2023-04-05T12:16:14.999Z,45.47
2023-04-05T12:17:14.933Z,45.97
2023-04-05T12:18:14.924Z,44.43
2023-04-05T12:19:14.903Z,44.92
2023-04-05T12:20:14.912Z,46.04
2023-04-05T12:21:14.979Z,44.00
2023-04-05T12:22:14.889Z,45.72
2023-04-05T12:23:14.893Z,45.31
2023-04-05T12:24:14.865Z,43.96
2023-04-05T12:25:14.881Z,44.65
2023-04-05T12:26:14.851Z,43.12
2023-04-05T12:27:14.844Z,44.32
2023-04-05T12:28:14.836Z,44.92
2023-04-05T12:29:14.835Z,43.67
2023-04-05T12:30:14.958Z,43.26
2023-04-05T12:31:14.814Z,43.88
2023-04-05T12:32:14.928Z,43.67
2023-04-05T12:33:14.813Z,44.16
2023-04-05T12:34:14.841Z,43.73
2023-04-05T12:35:14.814Z,41.30
2023-04-05T12:36:14.831Z,41.02
2023-04-05T12:37:14.774Z,41.55
2023-04-05T12:38:14.764Z,41.96
2023-04-05T12:39:14.755Z,41.35
2023-04-05T12:40:14.783Z,41.22
2023-04-05T12:41:14.742Z,43.04
2023-04-05T12:42:14.740Z,42.63
2023-04-05T12:43:14.726Z,41.63
2023-04-05T12:44:14.741Z,42.90
2023-04-05T12:45:14.717Z,43.02
2023-04-05T12:46:14.771Z,46.51
2023-04-05T12:47:14.700Z,46.33
2023-04-05T12:48:14.685Z,47.93
2023-04-05T12:49:14.682Z,46.77
2023-04-05T12:50:14.679Z,47.20
2023-04-05T12:51:14.686Z,46.30
2023-04-05T12:52:14.650Z,47.22